Mounds, Oklahoma
Current Conditions -  °F | °C
As of 10:53 PM on Sunday 19 Oct 2014 (Local Time) from KRVS Reporting Station
Broken Clouds Broken Clouds  
Wind Chill: 58°   Ceiling: 9000
Heat Index: 58°   Visibility: 10mi
Dew Point: 54°   Wind: 3mph
Humidity: 87%   Direction: 210°SSW
Pressure: 30.05"   Gusts: NA
Location:  35.88°N, 96.06°W
Report Text: KRVS 200353Z AUTO 21003KT 10SM BKN090 14/12 A3005 RMK AO2 SLP184 T01440122
Loading
Personal Weather Stations






























Interactive Weather Map
Tropical Storm Tracking
New forecast layout! Learn more

10-Day Weather Forecast

Advertisements
Track Severe Weather on mobile